sensor_id;sensor_type;location;lat;lon;timestamp;P1;durP1;ratioP1;P2;durP2;ratioP2
73100;SDS011;61288;53.446;-2.266;2022-09-09T00:04:05;11.10;;;3.97;;
73100;SDS011;61288;53.446;-2.266;2022-09-09T00:06:44;9.57;;;3.47;;
73100;SDS011;61288;53.446;-2.266;2022-09-09T00:09:19;7.38;;;2.92;;
73100;SDS011;61288;53.446;-2.266;2022-09-09T00:15:07;7.50;;;3.00;;
73100;SDS011;61288;53.446;-2.266;2022-09-09T00:23:16;9.27;;;3.28;;
73100;SDS011;61288;53.446;-2.266;2022-09-09T00:26:04;11.18;;;2.90;;
73100;SDS011;61288;53.446;-2.266;2022-09-09T00:31:34;8.10;;;3.13;;
73100;SDS011;61288;53.446;-2.266;2022-09-09T00:36:52;7.60;;;2.85;;
73100;SDS011;61288;53.446;-2.266;2022-09-09T00:39:32;7.18;;;2.63;;
73100;SDS011;61288;53.446;-2.266;2022-09-09T00:47:39;8.70;;;3.38;;
73100;SDS011;61288;53.446;-2.266;2022-09-09T00:50:17;8.43;;;3.03;;
73100;SDS011;61288;53.446;-2.266;2022-09-09T00:58:42;10.38;;;4.03;;
73100;SDS011;61288;53.446;-2.266;2022-09-09T01:01:12;10.50;;;3.17;;
73100;SDS011;61288;53.446;-2.266;2022-09-09T01:03:43;10.15;;;3.70;;
73100;SDS011;61288;53.446;-2.266;2022-09-09T01:14:32;7.63;;;2.95;;
73100;SDS011;61288;53.446;-2.266;2022-09-09T01:17:10;10.05;;;3.65;;
73100;SDS011;61288;53.446;-2.266;2022-09-09T01:28:13;14.73;;;4.85;;
73100;SDS011;61288;53.446;-2.266;2022-09-09T01:30:45;13.02;;;4.90;;
73100;SDS011;61288;53.446;-2.266;2022-09-09T01:33:15;13.85;;;5.35;;
73100;SDS011;61288;53.446;-2.266;2022-09-09T01:38:11;14.45;;;6.07;;
73100;SDS011;61288;53.446;-2.266;2022-09-09T01:40:38;14.73;;;5.47;;
73100;SDS011;61288;53.446;-2.266;2022-09-09T01:43:06;13.73;;;5.75;;
73100;SDS011;61288;53.446;-2.266;2022-09-09T01:45:32;14.07;;;5.53;;
73100;SDS011;61288;53.446;-2.266;2022-09-09T01:47:59;13.48;;;5.15;;
73100;SDS011;61288;53.446;-2.266;2022-09-09T01:50:25;14.88;;;5.63;;
73100;SDS011;61288;53.446;-2.266;2022-09-09T01:52:56;15.85;;;6.18;;
73100;SDS011;61288;53.446;-2.266;2022-09-09T01:55:31;14.35;;;5.85;;
73100;SDS011;61288;53.446;-2.266;2022-09-09T01:58:25;15.43;;;5.35;;
73100;SDS011;61288;53.446;-2.266;2022-09-09T02:01:06;13.05;;;5.32;;
73100;SDS011;61288;53.446;-2.266;2022-09-09T02:03:53;14.65;;;5.90;;
73100;SDS011;61288;53.446;-2.266;2022-09-09T02:06:25;16.42;;;6.55;;
73100;SDS011;61288;53.446;-2.266;2022-09-09T02:08:57;14.98;;;6.15;;
73100;SDS011;61288;53.446;-2.266;2022-09-09T02:11:25;16.30;;;6.75;;
73100;SDS011;61288;53.446;-2.266;2022-09-09T02:13:54;17.70;;;7.22;;
73100;SDS011;61288;53.446;-2.266;2022-09-09T02:21:39;16.70;;;6.95;;
73100;SDS011;61288;53.446;-2.266;2022-09-09T02:24:09;18.33;;;6.88;;
73100;SDS011;61288;53.446;-2.266;2022-09-09T02:26:39;19.65;;;7.53;;
73100;SDS011;61288;53.446;-2.266;2022-09-09T02:29:08;19.60;;;8.13;;
73100;SDS011;61288;53.446;-2.266;2022-09-09T02:31:39;17.80;;;8.27;;
73100;SDS011;61288;53.446;-2.266;2022-09-09T02:34:08;20.23;;;8.50;;
73100;SDS011;61288;53.446;-2.266;2022-09-09T02:36:36;20.35;;;8.75;;
73100;SDS011;61288;53.446;-2.266;2022-09-09T02:39:11;19.23;;;8.05;;
73100;SDS011;61288;53.446;-2.266;2022-09-09T02:41:39;18.70;;;7.90;;
73100;SDS011;61288;53.446;-2.266;2022-09-09T02:44:14;20.63;;;8.02;;
73100;SDS011;61288;53.446;-2.266;2022-09-09T03:00:06;20.73;;;8.63;;
73100;SDS011;61288;53.446;-2.266;2022-09-09T03:02:32;22.52;;;8.63;;
73100;SDS011;61288;53.446;-2.266;2022-09-09T03:04:59;19.05;;;8.55;;
73100;SDS011;61288;53.446;-2.266;2022-09-09T03:07:25;24.25;;;8.80;;
73100;SDS011;61288;53.446;-2.266;2022-09-09T03:09:52;19.08;;;8.93;;
73100;SDS011;61288;53.446;-2.266;2022-09-09T03:12:18;21.45;;;8.77;;
73100;SDS011;61288;53.446;-2.266;2022-09-09T03:14:45;21.13;;;8.70;;
73100;SDS011;61288;53.446;-2.266;2022-09-09T03:17:11;21.48;;;9.18;;
73100;SDS011;61288;53.446;-2.266;2022-09-09T03:19:38;20.83;;;9.77;;
73100;SDS011;61288;53.446;-2.266;2022-09-09T03:22:09;21.60;;;8.93;;
73100;SDS011;61288;53.446;-2.266;2022-09-09T03:24:35;23.13;;;9.13;;
73100;SDS011;61288;53.446;-2.266;2022-09-09T03:27:01;21.30;;;8.60;;
73100;SDS011;61288;53.446;-2.266;2022-09-09T03:29:27;19.70;;;8.88;;
73100;SDS011;61288;53.446;-2.266;2022-09-09T03:31:53;19.10;;;8.50;;
73100;SDS011;61288;53.446;-2.266;2022-09-09T03:34:18;18.33;;;9.23;;
73100;SDS011;61288;53.446;-2.266;2022-09-09T03:36:44;19.75;;;9.05;;
73100;SDS011;61288;53.446;-2.266;2022-09-09T03:39:10;23.05;;;9.25;;
73100;SDS011;61288;53.446;-2.266;2022-09-09T03:41:35;17.02;;;8.10;;
73100;SDS011;61288;53.446;-2.266;2022-09-09T03:44:02;19.10;;;8.43;;
73100;SDS011;61288;53.446;-2.266;2022-09-09T03:46:28;21.30;;;8.32;;
73100;SDS011;61288;53.446;-2.266;2022-09-09T03:48:54;18.17;;;8.55;;
73100;SDS011;61288;53.446;-2.266;2022-09-09T03:51:20;20.13;;;7.07;;
73100;SDS011;61288;53.446;-2.266;2022-09-09T03:53:47;21.08;;;8.88;;
73100;SDS011;61288;53.446;-2.266;2022-09-09T03:56:13;17.50;;;7.85;;
73100;SDS011;61288;53.446;-2.266;2022-09-09T03:58:38;17.95;;;7.43;;
73100;SDS011;61288;53.446;-2.266;2022-09-09T04:01:08;18.55;;;8.13;;
73100;SDS011;61288;53.446;-2.266;2022-09-09T04:03:38;17.05;;;7.80;;
73100;SDS011;61288;53.446;-2.266;2022-09-09T04:06:05;18.45;;;7.55;;
73100;SDS011;61288;53.446;-2.266;2022-09-09T04:08:33;19.55;;;8.15;;
73100;SDS011;61288;53.446;-2.266;2022-09-09T04:10:59;17.48;;;7.88;;
73100;SDS011;61288;53.446;-2.266;2022-09-09T04:13:26;16.35;;;7.45;;
73100;SDS011;61288;53.446;-2.266;2022-09-09T04:15:53;15.75;;;7.05;;
73100;SDS011;61288;53.446;-2.266;2022-09-09T04:18:22;16.63;;;8.38;;
73100;SDS011;61288;53.446;-2.266;2022-09-09T04:20:49;17.65;;;7.95;;
73100;SDS011;61288;53.446;-2.266;2022-09-09T04:23:16;18.95;;;8.48;;
73100;SDS011;61288;53.446;-2.266;2022-09-09T04:25:46;17.17;;;8.23;;
73100;SDS011;61288;53.446;-2.266;2022-09-09T04:28:13;18.20;;;7.88;;
73100;SDS011;61288;53.446;-2.266;2022-09-09T04:36:24;23.27;;;7.93;;
73100;SDS011;61288;53.446;-2.266;2022-09-09T04:38:50;18.48;;;8.55;;
73100;SDS011;61288;53.446;-2.266;2022-09-09T04:41:15;19.55;;;8.50;;
73100;SDS011;61288;53.446;-2.266;2022-09-09T04:43:42;20.60;;;7.68;;
73100;SDS011;61288;53.446;-2.266;2022-09-09T04:46:07;18.30;;;8.60;;
73100;SDS011;61288;53.446;-2.266;2022-09-09T04:48:33;16.27;;;8.02;;
73100;SDS011;61288;53.446;-2.266;2022-09-09T04:51:04;17.75;;;7.93;;
73100;SDS011;61288;53.446;-2.266;2022-09-09T04:53:31;18.90;;;7.25;;
73100;SDS011;61288;53.446;-2.266;2022-09-09T04:56:09;17.25;;;7.40;;
73100;SDS011;61288;53.446;-2.266;2022-09-09T04:58:36;20.15;;;8.15;;
73100;SDS011;61288;53.446;-2.266;2022-09-09T05:03:36;17.20;;;8.32;;
73100;SDS011;61288;53.446;-2.266;2022-09-09T05:08:38;16.80;;;7.18;;
73100;SDS011;61288;53.446;-2.266;2022-09-09T05:11:22;17.83;;;7.70;;
73100;SDS011;61288;53.446;-2.266;2022-09-09T05:13:52;16.30;;;7.32;;
73100;SDS011;61288;53.446;-2.266;2022-09-09T05:16:18;15.68;;;7.32;;
73100;SDS011;61288;53.446;-2.266;2022-09-09T05:18:46;16.90;;;7.38;;
73100;SDS011;61288;53.446;-2.266;2022-09-09T05:21:12;17.40;;;7.68;;
73100;SDS011;61288;53.446;-2.266;2022-09-09T05:23:39;16.10;;;7.10;;
73100;SDS011;61288;53.446;-2.266;2022-09-09T05:26:06;17.70;;;7.07;;
73100;SDS011;61288;53.446;-2.266;2022-09-09T05:28:36;16.00;;;7.40;;
73100;SDS011;61288;53.446;-2.266;2022-09-09T05:31:04;16.25;;;7.55;;
73100;SDS011;61288;53.446;-2.266;2022-09-09T05:33:33;14.82;;;6.97;;
73100;SDS011;61288;53.446;-2.266;2022-09-09T05:36:01;16.65;;;7.00;;
73100;SDS011;61288;53.446;-2.266;2022-09-09T05:38:29;18.27;;;8.00;;
73100;SDS011;61288;53.446;-2.266;2022-09-09T05:40:55;16.58;;;7.20;;
73100;SDS011;61288;53.446;-2.266;2022-09-09T05:43:22;14.57;;;6.90;;
73100;SDS011;61288;53.446;-2.266;2022-09-09T05:45:58;14.95;;;6.90;;
73100;SDS011;61288;53.446;-2.266;2022-09-09T05:48:29;15.10;;;6.53;;
73100;SDS011;61288;53.446;-2.266;2022-09-09T05:50:56;13.63;;;6.45;;
73100;SDS011;61288;53.446;-2.266;2022-09-09T05:53:21;15.45;;;6.72;;
73100;SDS011;61288;53.446;-2.266;2022-09-09T05:55:48;17.00;;;6.50;;
73100;SDS011;61288;53.446;-2.266;2022-09-09T05:58:14;15.65;;;6.78;;
73100;SDS011;61288;53.446;-2.266;2022-09-09T06:00:42;14.38;;;6.90;;
73100;SDS011;61288;53.446;-2.266;2022-09-09T06:03:12;15.18;;;6.47;;
73100;SDS011;61288;53.446;-2.266;2022-09-09T06:05:39;14.32;;;6.63;;
73100;SDS011;61288;53.446;-2.266;2022-09-09T06:08:04;16.70;;;7.13;;
73100;SDS011;61288;53.446;-2.266;2022-09-09T06:10:30;15.40;;;6.25;;
73100;SDS011;61288;53.446;-2.266;2022-09-09T06:12:59;14.90;;;5.95;;
73100;SDS011;61288;53.446;-2.266;2022-09-09T06:15:25;15.45;;;6.47;;
73100;SDS011;61288;53.446;-2.266;2022-09-09T06:17:54;12.50;;;5.88;;
73100;SDS011;61288;53.446;-2.266;2022-09-09T06:20:20;15.88;;;5.72;;
73100;SDS011;61288;53.446;-2.266;2022-09-09T06:22:47;14.68;;;5.57;;
73100;SDS011;61288;53.446;-2.266;2022-09-09T06:25:13;15.02;;;5.90;;
73100;SDS011;61288;53.446;-2.266;2022-09-09T06:27:40;15.27;;;5.75;;
73100;SDS011;61288;53.446;-2.266;2022-09-09T06:30:07;13.82;;;6.07;;
73100;SDS011;61288;53.446;-2.266;2022-09-09T06:32:33;14.43;;;6.07;;
73100;SDS011;61288;53.446;-2.266;2022-09-09T06:35:00;11.95;;;5.45;;
73100;SDS011;61288;53.446;-2.266;2022-09-09T06:37:26;15.55;;;6.28;;
73100;SDS011;61288;53.446;-2.266;2022-09-09T06:39:54;12.38;;;5.63;;
73100;SDS011;61288;53.446;-2.266;2022-09-09T06:42:20;13.98;;;5.53;;
73100;SDS011;61288;53.446;-2.266;2022-09-09T06:44:45;12.75;;;5.30;;
73100;SDS011;61288;53.446;-2.266;2022-09-09T06:47:11;13.27;;;5.80;;
73100;SDS011;61288;53.446;-2.266;2022-09-09T06:49:37;14.48;;;6.20;;
73100;SDS011;61288;53.446;-2.266;2022-09-09T06:52:02;11.52;;;5.80;;
73100;SDS011;61288;53.446;-2.266;2022-09-09T06:54:28;14.88;;;5.30;;
73100;SDS011;61288;53.446;-2.266;2022-09-09T06:56:54;12.48;;;4.65;;
73100;SDS011;61288;53.446;-2.266;2022-09-09T06:59:19;18.23;;;5.32;;
73100;SDS011;61288;53.446;-2.266;2022-09-09T07:01:45;11.90;;;4.75;;
73100;SDS011;61288;53.446;-2.266;2022-09-09T07:04:13;12.55;;;5.13;;
73100;SDS011;61288;53.446;-2.266;2022-09-09T07:06:40;12.10;;;5.25;;
73100;SDS011;61288;53.446;-2.266;2022-09-09T07:09:09;13.65;;;5.07;;
73100;SDS011;61288;53.446;-2.266;2022-09-09T07:14:06;12.43;;;5.32;;
73100;SDS011;61288;53.446;-2.266;2022-09-09T07:16:36;13.00;;;4.85;;
73100;SDS011;61288;53.446;-2.266;2022-09-09T07:19:03;15.32;;;4.65;;
73100;SDS011;61288;53.446;-2.266;2022-09-09T07:21:31;16.38;;;5.05;;
73100;SDS011;61288;53.446;-2.266;2022-09-09T07:23:58;14.25;;;4.88;;
73100;SDS011;61288;53.446;-2.266;2022-09-09T07:26:29;14.77;;;4.95;;
73100;SDS011;61288;53.446;-2.266;2022-09-09T07:28:55;11.93;;;4.50;;
73100;SDS011;61288;53.446;-2.266;2022-09-09T07:31:26;10.35;;;4.40;;
73100;SDS011;61288;53.446;-2.266;2022-09-09T07:33:55;15.88;;;5.05;;
73100;SDS011;61288;53.446;-2.266;2022-09-09T07:36:25;13.50;;;5.22;;
73100;SDS011;61288;53.446;-2.266;2022-09-09T07:38:53;13.43;;;5.20;;
73100;SDS011;61288;53.446;-2.266;2022-09-09T07:43:53;12.27;;;5.05;;
73100;SDS011;61288;53.446;-2.266;2022-09-09T07:46:20;12.57;;;4.45;;
73100;SDS011;61288;53.446;-2.266;2022-09-09T07:48:54;15.07;;;5.72;;
73100;SDS011;61288;53.446;-2.266;2022-09-09T07:51:28;11.75;;;4.57;;
73100;SDS011;61288;53.446;-2.266;2022-09-09T07:53:56;14.02;;;4.88;;
73100;SDS011;61288;53.446;-2.266;2022-09-09T07:56:24;12.70;;;5.65;;
73100;SDS011;61288;53.446;-2.266;2022-09-09T07:58:53;10.40;;;4.75;;
73100;SDS011;61288;53.446;-2.266;2022-09-09T08:01:22;10.95;;;4.60;;
73100;SDS011;61288;53.446;-2.266;2022-09-09T08:03:57;12.98;;;5.18;;
73100;SDS011;61288;53.446;-2.266;2022-09-09T08:06:27;13.32;;;4.47;;
73100;SDS011;61288;53.446;-2.266;2022-09-09T08:08:54;10.57;;;4.70;;
73100;SDS011;61288;53.446;-2.266;2022-09-09T08:11:20;11.73;;;4.75;;
73100;SDS011;61288;53.446;-2.266;2022-09-09T08:13:48;11.93;;;4.60;;
73100;SDS011;61288;53.446;-2.266;2022-09-09T08:16:31;13.50;;;5.28;;
73100;SDS011;61288;53.446;-2.266;2022-09-09T08:18:58;13.60;;;4.95;;
73100;SDS011;61288;53.446;-2.266;2022-09-09T08:21:25;12.20;;;5.18;;
73100;SDS011;61288;53.446;-2.266;2022-09-09T08:23:53;14.02;;;5.05;;
73100;SDS011;61288;53.446;-2.266;2022-09-09T08:26:30;13.85;;;5.15;;
73100;SDS011;61288;53.446;-2.266;2022-09-09T08:28:57;11.68;;;4.35;;
73100;SDS011;61288;53.446;-2.266;2022-09-09T08:31:28;12.25;;;4.30;;
73100;SDS011;61288;53.446;-2.266;2022-09-09T08:34:03;11.48;;;3.80;;
73100;SDS011;61288;53.446;-2.266;2022-09-09T08:36:31;11.20;;;4.75;;
73100;SDS011;61288;53.446;-2.266;2022-09-09T08:39:07;11.00;;;4.45;;
73100;SDS011;61288;53.446;-2.266;2022-09-09T08:55:18;14.27;;;3.75;;
73100;SDS011;61288;53.446;-2.266;2022-09-09T08:57:50;10.65;;;3.85;;
73100;SDS011;61288;53.446;-2.266;2022-09-09T09:00:19;9.45;;;3.80;;
73100;SDS011;61288;53.446;-2.266;2022-09-09T09:08:42;7.65;;;3.15;;
73100;SDS011;61288;53.446;-2.266;2022-09-09T09:11:16;11.85;;;3.40;;
73100;SDS011;61288;53.446;-2.266;2022-09-09T09:19:01;9.23;;;3.30;;
73100;SDS011;61288;53.446;-2.266;2022-09-09T09:24:34;9.20;;;3.00;;
73100;SDS011;61288;53.446;-2.266;2022-09-09T09:27:34;9.60;;;2.63;;
73100;SDS011;61288;53.446;-2.266;2022-09-09T09:30:21;8.93;;;2.92;;
73100;SDS011;61288;53.446;-2.266;2022-09-09T09:32:54;9.65;;;2.90;;
73100;SDS011;61288;53.446;-2.266;2022-09-09T09:35:22;12.20;;;2.60;;
73100;SDS011;61288;53.446;-2.266;2022-09-09T09:37:49;8.05;;;2.85;;
73100;SDS011;61288;53.446;-2.266;2022-09-09T09:40:15;8.50;;;3.00;;
73100;SDS011;61288;53.446;-2.266;2022-09-09T09:42:53;9.80;;;3.22;;
73100;SDS011;61288;53.446;-2.266;2022-09-09T09:48:10;9.15;;;3.13;;
73100;SDS011;61288;53.446;-2.266;2022-09-09T09:50:47;9.30;;;3.20;;
73100;SDS011;61288;53.446;-2.266;2022-09-09T09:53:18;9.70;;;3.40;;
73100;SDS011;61288;53.446;-2.266;2022-09-09T09:56:09;10.75;;;3.03;;
73100;SDS011;61288;53.446;-2.266;2022-09-09T10:01:20;10.60;;;3.00;;
73100;SDS011;61288;53.446;-2.266;2022-09-09T10:04:02;9.85;;;2.50;;
73100;SDS011;61288;53.446;-2.266;2022-09-09T10:06:38;8.80;;;2.30;;
73100;SDS011;61288;53.446;-2.266;2022-09-09T10:09:26;7.20;;;1.90;;
73100;SDS011;61288;53.446;-2.266;2022-09-09T10:20:45;9.80;;;2.08;;
73100;SDS011;61288;53.446;-2.266;2022-09-09T10:26:09;8.98;;;2.10;;
73100;SDS011;61288;53.446;-2.266;2022-09-09T10:36:43;10.82;;;2.50;;
73100;SDS011;61288;53.446;-2.266;2022-09-09T10:47:06;9.10;;;2.08;;
73100;SDS011;61288;53.446;-2.266;2022-09-09T10:55:42;10.52;;;2.50;;
73100;SDS011;61288;53.446;-2.266;2022-09-09T10:58:12;10.70;;;2.50;;
73100;SDS011;61288;53.446;-2.266;2022-09-09T11:00:49;10.65;;;2.95;;
73100;SDS011;61288;53.446;-2.266;2022-09-09T11:03:20;6.85;;;2.50;;
73100;SDS011;61288;53.446;-2.266;2022-09-09T11:05:51;11.30;;;3.72;;
73100;SDS011;61288;53.446;-2.266;2022-09-09T11:08:29;13.05;;;3.85;;
73100;SDS011;61288;53.446;-2.266;2022-09-09T11:21:49;9.63;;;3.22;;
73100;SDS011;61288;53.446;-2.266;2022-09-09T11:27:12;10.30;;;3.40;;
73100;SDS011;61288;53.446;-2.266;2022-09-09T11:41:04;11.10;;;3.42;;
73100;SDS011;61288;53.446;-2.266;2022-09-09T11:46:12;9.88;;;3.75;;
73100;SDS011;61288;53.446;-2.266;2022-09-09T11:48:41;9.93;;;3.33;;
73100;SDS011;61288;53.446;-2.266;2022-09-09T11:56:48;11.85;;;3.65;;
73100;SDS011;61288;53.446;-2.266;2022-09-09T11:59:32;12.80;;;3.47;;
73100;SDS011;61288;53.446;-2.266;2022-09-09T12:02:02;11.45;;;3.22;;
73100;SDS011;61288;53.446;-2.266;2022-09-09T12:04:38;9.63;;;3.45;;
73100;SDS011;61288;53.446;-2.266;2022-09-09T12:12:22;12.02;;;4.28;;
73100;SDS011;61288;53.446;-2.266;2022-09-09T12:17:29;11.35;;;3.58;;
73100;SDS011;61288;53.446;-2.266;2022-09-09T12:20:16;10.80;;;3.45;;
73100;SDS011;61288;53.446;-2.266;2022-09-09T12:28:20;13.43;;;5.07;;
73100;SDS011;61288;53.446;-2.266;2022-09-09T12:33:33;14.32;;;5.68;;
73100;SDS011;61288;53.446;-2.266;2022-09-09T12:36:04;13.38;;;4.68;;
73100;SDS011;61288;53.446;-2.266;2022-09-09T12:38:38;11.43;;;3.95;;
73100;SDS011;61288;53.446;-2.266;2022-09-09T12:41:06;8.50;;;2.55;;
73100;SDS011;61288;53.446;-2.266;2022-09-09T12:43:49;10.02;;;3.20;;
73100;SDS011;61288;53.446;-2.266;2022-09-09T12:46:36;10.23;;;3.10;;
73100;SDS011;61288;53.446;-2.266;2022-09-09T12:51:51;7.75;;;2.85;;
73100;SDS011;61288;53.446;-2.266;2022-09-09T12:54:17;11.23;;;3.15;;
73100;SDS011;61288;53.446;-2.266;2022-09-09T12:56:45;9.50;;;3.25;;
73100;SDS011;61288;53.446;-2.266;2022-09-09T12:59:21;9.60;;;2.92;;
73100;SDS011;61288;53.446;-2.266;2022-09-09T13:01:55;9.32;;;3.35;;
73100;SDS011;61288;53.446;-2.266;2022-09-09T13:04:22;7.13;;;3.10;;
73100;SDS011;61288;53.446;-2.266;2022-09-09T13:06:48;8.57;;;2.92;;
73100;SDS011;61288;53.446;-2.266;2022-09-09T13:09:15;9.20;;;3.00;;
73100;SDS011;61288;53.446;-2.266;2022-09-09T13:11:41;9.75;;;3.40;;
73100;SDS011;61288;53.446;-2.266;2022-09-09T13:14:34;12.15;;;3.47;;
73100;SDS011;61288;53.446;-2.266;2022-09-09T13:17:00;9.73;;;3.17;;
73100;SDS011;61288;53.446;-2.266;2022-09-09T13:19:37;11.35;;;3.13;;
73100;SDS011;61288;53.446;-2.266;2022-09-09T13:24:47;9.07;;;3.20;;
73100;SDS011;61288;53.446;-2.266;2022-09-09T13:27:29;8.63;;;3.10;;
73100;SDS011;61288;53.446;-2.266;2022-09-09T13:29:59;8.85;;;3.33;;
73100;SDS011;61288;53.446;-2.266;2022-09-09T13:32:26;9.38;;;3.60;;
73100;SDS011;61288;53.446;-2.266;2022-09-09T13:34:59;8.98;;;3.42;;
73100;SDS011;61288;53.446;-2.266;2022-09-09T13:37:33;8.15;;;3.50;;
73100;SDS011;61288;53.446;-2.266;2022-09-09T13:40:02;9.95;;;3.53;;
73100;SDS011;61288;53.446;-2.266;2022-09-09T13:42:31;12.43;;;3.72;;
73100;SDS011;61288;53.446;-2.266;2022-09-09T13:47:32;11.38;;;3.78;;
73100;SDS011;61288;53.446;-2.266;2022-09-09T13:50:18;10.20;;;4.00;;
73100;SDS011;61288;53.446;-2.266;2022-09-09T13:52:52;9.85;;;4.32;;
73100;SDS011;61288;53.446;-2.266;2022-09-09T13:55:20;8.20;;;3.30;;
73100;SDS011;61288;53.446;-2.266;2022-09-09T13:57:57;9.95;;;3.00;;
73100;SDS011;61288;53.446;-2.266;2022-09-09T14:00:23;7.00;;;2.67;;
73100;SDS011;61288;53.446;-2.266;2022-09-09T14:02:49;8.82;;;2.92;;
73100;SDS011;61288;53.446;-2.266;2022-09-09T14:05:18;9.20;;;2.92;;
73100;SDS011;61288;53.446;-2.266;2022-09-09T14:07:44;3.53;;;1.65;;
73100;SDS011;61288;53.446;-2.266;2022-09-09T14:10:13;2.92;;;1.17;;
73100;SDS011;61288;53.446;-2.266;2022-09-09T14:12:39;2.00;;;0.80;;
73100;SDS011;61288;53.446;-2.266;2022-09-09T14:15:06;3.67;;;1.00;;
73100;SDS011;61288;53.446;-2.266;2022-09-09T14:17:33;2.67;;;1.00;;
73100;SDS011;61288;53.446;-2.266;2022-09-09T14:19:59;3.08;;;0.80;;
73100;SDS011;61288;53.446;-2.266;2022-09-09T14:22:25;3.55;;;0.80;;
73100;SDS011;61288;53.446;-2.266;2022-09-09T14:24:51;2.53;;;1.20;;
73100;SDS011;61288;53.446;-2.266;2022-09-09T14:27:17;3.90;;;1.08;;
73100;SDS011;61288;53.446;-2.266;2022-09-09T14:29:43;3.58;;;1.15;;
73100;SDS011;61288;53.446;-2.266;2022-09-09T14:32:10;4.47;;;1.00;;
73100;SDS011;61288;53.446;-2.266;2022-09-09T14:34:36;2.78;;;0.82;;
73100;SDS011;61288;53.446;-2.266;2022-09-09T14:37:02;4.90;;;1.02;;
73100;SDS011;61288;53.446;-2.266;2022-09-09T14:39:28;4.47;;;1.10;;
73100;SDS011;61288;53.446;-2.266;2022-09-09T14:41:53;3.30;;;1.00;;
73100;SDS011;61288;53.446;-2.266;2022-09-09T14:44:23;1.38;;;0.85;;
73100;SDS011;61288;53.446;-2.266;2022-09-09T14:46:49;3.13;;;1.17;;
73100;SDS011;61288;53.446;-2.266;2022-09-09T14:49:15;2.40;;;1.10;;
73100;SDS011;61288;53.446;-2.266;2022-09-09T14:51:43;3.63;;;1.40;;
73100;SDS011;61288;53.446;-2.266;2022-09-09T14:54:09;3.03;;;1.42;;
73100;SDS011;61288;53.446;-2.266;2022-09-09T14:56:36;5.43;;;1.45;;
73100;SDS011;61288;53.446;-2.266;2022-09-09T14:59:02;4.85;;;1.70;;
73100;SDS011;61288;53.446;-2.266;2022-09-09T15:01:31;4.90;;;1.60;;
73100;SDS011;61288;53.446;-2.266;2022-09-09T15:03:58;4.85;;;1.55;;
73100;SDS011;61288;53.446;-2.266;2022-09-09T15:06:29;4.85;;;1.50;;
73100;SDS011;61288;53.446;-2.266;2022-09-09T15:08:58;3.30;;;1.50;;
73100;SDS011;61288;53.446;-2.266;2022-09-09T15:11:25;2.45;;;1.40;;
73100;SDS011;61288;53.446;-2.266;2022-09-09T15:13:55;3.22;;;1.38;;
73100;SDS011;61288;53.446;-2.266;2022-09-09T15:16:23;5.25;;;1.58;;
73100;SDS011;61288;53.446;-2.266;2022-09-09T15:18:54;3.05;;;1.63;;
73100;SDS011;61288;53.446;-2.266;2022-09-09T15:21:22;3.55;;;1.42;;
73100;SDS011;61288;53.446;-2.266;2022-09-09T15:23:51;6.38;;;2.00;;
73100;SDS011;61288;53.446;-2.266;2022-09-09T15:26:17;5.85;;;1.80;;
73100;SDS011;61288;53.446;-2.266;2022-09-09T15:28:44;5.18;;;1.60;;
73100;SDS011;61288;53.446;-2.266;2022-09-09T15:31:16;6.57;;;1.58;;
73100;SDS011;61288;53.446;-2.266;2022-09-09T15:33:48;3.45;;;1.50;;
73100;SDS011;61288;53.446;-2.266;2022-09-09T15:36:16;5.95;;;1.80;;
73100;SDS011;61288;53.446;-2.266;2022-09-09T15:38:47;5.93;;;1.80;;
73100;SDS011;61288;53.446;-2.266;2022-09-09T15:41:14;5.32;;;1.90;;
73100;SDS011;61288;53.446;-2.266;2022-09-09T15:43:47;4.38;;;1.70;;
73100;SDS011;61288;53.446;-2.266;2022-09-09T15:48:49;4.07;;;2.00;;
73100;SDS011;61288;53.446;-2.266;2022-09-09T15:51:16;3.65;;;1.65;;
73100;SDS011;61288;53.446;-2.266;2022-09-09T15:53:41;5.57;;;1.90;;
73100;SDS011;61288;53.446;-2.266;2022-09-09T15:56:08;4.38;;;1.60;;
73100;SDS011;61288;53.446;-2.266;2022-09-09T15:58:35;3.72;;;1.83;;
73100;SDS011;61288;53.446;-2.266;2022-09-09T16:01:04;4.95;;;1.80;;
73100;SDS011;61288;53.446;-2.266;2022-09-09T16:03:38;7.13;;;1.80;;
73100;SDS011;61288;53.446;-2.266;2022-09-09T16:06:11;7.50;;;1.65;;
73100;SDS011;61288;53.446;-2.266;2022-09-09T16:08:39;3.95;;;1.60;;
73100;SDS011;61288;53.446;-2.266;2022-09-09T16:11:48;5.95;;;1.70;;
73100;SDS011;61288;53.446;-2.266;2022-09-09T16:13:56;3.95;;;1.85;;
73100;SDS011;61288;53.446;-2.266;2022-09-09T16:16:26;4.05;;;1.80;;
73100;SDS011;61288;53.446;-2.266;2022-09-09T16:18:55;3.70;;;1.50;;
73100;SDS011;61288;53.446;-2.266;2022-09-09T16:23:57;4.45;;;1.88;;
73100;SDS011;61288;53.446;-2.266;2022-09-09T16:26:24;5.85;;;1.80;;
73100;SDS011;61288;53.446;-2.266;2022-09-09T16:28:50;4.68;;;1.80;;
73100;SDS011;61288;53.446;-2.266;2022-09-09T16:31:17;4.97;;;1.80;;
73100;SDS011;61288;53.446;-2.266;2022-09-09T16:33:44;4.18;;;1.70;;
73100;SDS011;61288;53.446;-2.266;2022-09-09T16:36:12;3.70;;;1.65;;
73100;SDS011;61288;53.446;-2.266;2022-09-09T16:38:43;3.63;;;2.10;;
73100;SDS011;61288;53.446;-2.266;2022-09-09T16:41:10;4.32;;;1.70;;
73100;SDS011;61288;53.446;-2.266;2022-09-09T16:43:37;4.30;;;1.63;;
73100;SDS011;61288;53.446;-2.266;2022-09-09T16:46:03;3.88;;;1.70;;
73100;SDS011;61288;53.446;-2.266;2022-09-09T16:48:40;4.38;;;1.63;;
73100;SDS011;61288;53.446;-2.266;2022-09-09T16:51:09;4.35;;;1.77;;
73100;SDS011;61288;53.446;-2.266;2022-09-09T16:53:39;4.25;;;1.42;;
73100;SDS011;61288;53.446;-2.266;2022-09-09T16:56:07;6.40;;;1.70;;
73100;SDS011;61288;53.446;-2.266;2022-09-09T16:58:33;4.63;;;1.58;;
73100;SDS011;61288;53.446;-2.266;2022-09-09T17:01:00;4.65;;;1.60;;
73100;SDS011;61288;53.446;-2.266;2022-09-09T17:03:27;5.00;;;1.40;;
73100;SDS011;61288;53.446;-2.266;2022-09-09T17:05:52;4.47;;;1.70;;
73100;SDS011;61288;53.446;-2.266;2022-09-09T17:08:18;3.45;;;1.45;;
73100;SDS011;61288;53.446;-2.266;2022-09-09T17:10:43;5.50;;;1.60;;
73100;SDS011;61288;53.446;-2.266;2022-09-09T17:13:09;4.95;;;1.70;;
73100;SDS011;61288;53.446;-2.266;2022-09-09T17:15:43;3.83;;;1.55;;
73100;SDS011;61288;53.446;-2.266;2022-09-09T17:18:10;5.15;;;1.70;;
73100;SDS011;61288;53.446;-2.266;2022-09-09T17:20:36;5.80;;;1.83;;
73100;SDS011;61288;53.446;-2.266;2022-09-09T17:23:08;8.13;;;1.70;;
73100;SDS011;61288;53.446;-2.266;2022-09-09T17:25:35;6.13;;;1.63;;
73100;SDS011;61288;53.446;-2.266;2022-09-09T17:28:01;5.90;;;1.80;;
73100;SDS011;61288;53.446;-2.266;2022-09-09T17:30:29;5.53;;;1.88;;
73100;SDS011;61288;53.446;-2.266;2022-09-09T17:35:24;5.65;;;1.55;;
73100;SDS011;61288;53.446;-2.266;2022-09-09T17:37:54;4.80;;;1.20;;
73100;SDS011;61288;53.446;-2.266;2022-09-09T17:40:21;3.33;;;1.30;;
73100;SDS011;61288;53.446;-2.266;2022-09-09T17:42:47;4.55;;;1.20;;
73100;SDS011;61288;53.446;-2.266;2022-09-09T17:45:13;3.47;;;1.20;;
73100;SDS011;61288;53.446;-2.266;2022-09-09T17:47:40;8.27;;;1.35;;
73100;SDS011;61288;53.446;-2.266;2022-09-09T17:50:08;5.75;;;1.40;;
73100;SDS011;61288;53.446;-2.266;2022-09-09T17:52:37;4.40;;;1.40;;
73100;SDS011;61288;53.446;-2.266;2022-09-09T17:55:04;4.03;;;1.13;;
73100;SDS011;61288;53.446;-2.266;2022-09-09T17:57:30;4.63;;;1.50;;
73100;SDS011;61288;53.446;-2.266;2022-09-09T17:59:56;4.03;;;1.73;;
73100;SDS011;61288;53.446;-2.266;2022-09-09T18:02:22;5.95;;;1.70;;
73100;SDS011;61288;53.446;-2.266;2022-09-09T18:04:47;3.53;;;1.50;;
73100;SDS011;61288;53.446;-2.266;2022-09-09T18:07:13;3.08;;;1.40;;
73100;SDS011;61288;53.446;-2.266;2022-09-09T18:09:39;5.93;;;1.48;;
73100;SDS011;61288;53.446;-2.266;2022-09-09T18:12:05;7.32;;;1.85;;
73100;SDS011;61288;53.446;-2.266;2022-09-09T18:14:32;3.95;;;1.70;;
73100;SDS011;61288;53.446;-2.266;2022-09-09T18:17:00;5.82;;;1.40;;